sensor_id;sensor_type;location;lat;lon;timestamp;P1;durP1;ratioP1;P2;durP2;ratioP2
63699;SDS011;49845;47.130;142.766;2023-07-30T00:02:01;14.30;;;8.07;;
63699;SDS011;49845;47.130;142.766;2023-07-30T00:04:34;14.27;;;7.43;;
63699;SDS011;49845;47.130;142.766;2023-07-30T00:07:04;14.50;;;8.20;;
63699;SDS011;49845;47.130;142.766;2023-07-30T00:09:35;12.07;;;7.50;;
63699;SDS011;49845;47.130;142.766;2023-07-30T00:12:06;17.30;;;7.60;;
63699;SDS011;49845;47.130;142.766;2023-07-30T00:14:37;14.93;;;8.50;;
63699;SDS011;49845;47.130;142.766;2023-07-30T00:17:08;9.77;;;7.27;;
63699;SDS011;49845;47.130;142.766;2023-07-30T00:19:40;11.63;;;6.77;;
63699;SDS011;49845;47.130;142.766;2023-07-30T00:22:10;13.50;;;7.47;;
63699;SDS011;49845;47.130;142.766;2023-07-30T00:24:41;10.47;;;7.27;;
63699;SDS011;49845;47.130;142.766;2023-07-30T00:27:12;11.50;;;7.30;;
63699;SDS011;49845;47.130;142.766;2023-07-30T00:29:42;11.10;;;7.03;;
63699;SDS011;49845;47.130;142.766;2023-07-30T00:32:13;18.07;;;6.70;;
63699;SDS011;49845;47.130;142.766;2023-07-30T00:34:46;12.47;;;7.07;;
63699;SDS011;49845;47.130;142.766;2023-07-30T00:37:16;10.23;;;7.60;;
63699;SDS011;49845;47.130;142.766;2023-07-30T00:39:47;9.67;;;6.73;;
63699;SDS011;49845;47.130;142.766;2023-07-30T00:42:17;9.73;;;6.93;;
63699;SDS011;49845;47.130;142.766;2023-07-30T00:44:48;11.87;;;6.93;;
63699;SDS011;49845;47.130;142.766;2023-07-30T00:47:18;11.47;;;7.00;;
63699;SDS011;49845;47.130;142.766;2023-07-30T00:49:50;10.23;;;6.70;;
63699;SDS011;49845;47.130;142.766;2023-07-30T00:52:21;14.33;;;6.77;;
63699;SDS011;49845;47.130;142.766;2023-07-30T00:54:54;11.07;;;7.23;;
63699;SDS011;49845;47.130;142.766;2023-07-30T00:57:29;15.10;;;6.30;;
63699;SDS011;49845;47.130;142.766;2023-07-30T01:00:00;8.80;;;6.93;;
63699;SDS011;49845;47.130;142.766;2023-07-30T01:02:33;13.30;;;7.00;;
63699;SDS011;49845;47.130;142.766;2023-07-30T01:05:06;11.60;;;7.03;;
63699;SDS011;49845;47.130;142.766;2023-07-30T01:07:37;8.63;;;6.70;;
63699;SDS011;49845;47.130;142.766;2023-07-30T01:10:08;12.67;;;6.37;;
63699;SDS011;49845;47.130;142.766;2023-07-30T01:12:39;13.87;;;7.00;;
63699;SDS011;49845;47.130;142.766;2023-07-30T01:15:12;9.37;;;6.97;;
63699;SDS011;49845;47.130;142.766;2023-07-30T01:17:43;12.70;;;6.73;;
63699;SDS011;49845;47.130;142.766;2023-07-30T01:20:15;14.43;;;7.83;;
63699;SDS011;49845;47.130;142.766;2023-07-30T01:22:47;9.13;;;6.43;;
63699;SDS011;49845;47.130;142.766;2023-07-30T01:25:18;10.67;;;6.17;;
63699;SDS011;49845;47.130;142.766;2023-07-30T01:27:53;11.90;;;7.27;;
63699;SDS011;49845;47.130;142.766;2023-07-30T01:30:29;12.93;;;7.07;;
63699;SDS011;49845;47.130;142.766;2023-07-30T01:33:02;11.33;;;7.27;;
63699;SDS011;49845;47.130;142.766;2023-07-30T01:35:34;15.93;;;8.30;;
63699;SDS011;49845;47.130;142.766;2023-07-30T01:38:07;12.43;;;7.23;;
63699;SDS011;49845;47.130;142.766;2023-07-30T01:40:39;11.50;;;7.47;;
63699;SDS011;49845;47.130;142.766;2023-07-30T01:43:10;14.83;;;7.37;;
63699;SDS011;49845;47.130;142.766;2023-07-30T01:45:40;11.47;;;7.63;;
63699;SDS011;49845;47.130;142.766;2023-07-30T01:48:11;12.80;;;7.43;;
63699;SDS011;49845;47.130;142.766;2023-07-30T01:50:41;14.77;;;7.97;;
63699;SDS011;49845;47.130;142.766;2023-07-30T01:53:16;18.40;;;7.33;;
63699;SDS011;49845;47.130;142.766;2023-07-30T01:55:48;11.27;;;7.40;;
63699;SDS011;49845;47.130;142.766;2023-07-30T01:58:19;12.70;;;7.33;;
63699;SDS011;49845;47.130;142.766;2023-07-30T02:00:49;11.80;;;7.23;;
63699;SDS011;49845;47.130;142.766;2023-07-30T02:03:22;11.70;;;7.60;;
63699;SDS011;49845;47.130;142.766;2023-07-30T02:05:53;13.60;;;7.23;;
63699;SDS011;49845;47.130;142.766;2023-07-30T02:08:25;15.20;;;11.00;;
63699;SDS011;49845;47.130;142.766;2023-07-30T02:10:56;34.67;;;21.13;;
63699;SDS011;49845;47.130;142.766;2023-07-30T02:13:26;40.03;;;25.30;;
63699;SDS011;49845;47.130;142.766;2023-07-30T02:15:57;16.50;;;9.53;;
63699;SDS011;49845;47.130;142.766;2023-07-30T02:18:27;29.73;;;22.10;;
63699;SDS011;49845;47.130;142.766;2023-07-30T02:21:08;49.27;;;34.30;;
63699;SDS011;49845;47.130;142.766;2023-07-30T02:23:40;19.37;;;11.30;;
63699;SDS011;49845;47.130;142.766;2023-07-30T02:26:11;19.90;;;10.53;;
63699;SDS011;49845;47.130;142.766;2023-07-30T02:28:42;16.00;;;8.90;;
63699;SDS011;49845;47.130;142.766;2023-07-30T02:31:12;15.50;;;11.63;;
63699;SDS011;49845;47.130;142.766;2023-07-30T02:33:43;20.63;;;10.43;;
63699;SDS011;49845;47.130;142.766;2023-07-30T02:36:14;17.87;;;8.20;;
63699;SDS011;49845;47.130;142.766;2023-07-30T02:38:46;16.80;;;9.40;;
63699;SDS011;49845;47.130;142.766;2023-07-30T02:41:16;16.43;;;8.30;;
63699;SDS011;49845;47.130;142.766;2023-07-30T02:43:51;22.97;;;9.97;;
63699;SDS011;49845;47.130;142.766;2023-07-30T02:46:26;14.47;;;9.63;;
63699;SDS011;49845;47.130;142.766;2023-07-30T02:49:03;22.13;;;11.80;;
63699;SDS011;49845;47.130;142.766;2023-07-30T02:51:37;22.10;;;11.17;;
63699;SDS011;49845;47.130;142.766;2023-07-30T02:54:11;14.37;;;8.93;;
63699;SDS011;49845;47.130;142.766;2023-07-30T02:56:43;12.83;;;7.70;;
63699;SDS011;49845;47.130;142.766;2023-07-30T02:59:18;16.27;;;8.10;;
63699;SDS011;49845;47.130;142.766;2023-07-30T03:01:51;14.60;;;7.93;;
63699;SDS011;49845;47.130;142.766;2023-07-30T03:04:25;12.83;;;7.60;;
63699;SDS011;49845;47.130;142.766;2023-07-30T03:06:58;10.23;;;7.30;;
63699;SDS011;49845;47.130;142.766;2023-07-30T03:09:32;17.47;;;8.37;;
63699;SDS011;49845;47.130;142.766;2023-07-30T03:12:05;13.53;;;7.40;;
63699;SDS011;49845;47.130;142.766;2023-07-30T03:14:38;13.80;;;7.67;;
63699;SDS011;49845;47.130;142.766;2023-07-30T03:17:13;20.90;;;8.17;;
63699;SDS011;49845;47.130;142.766;2023-07-30T03:19:46;13.83;;;8.07;;
63699;SDS011;49845;47.130;142.766;2023-07-30T03:22:19;14.07;;;7.30;;
63699;SDS011;49845;47.130;142.766;2023-07-30T03:24:54;12.03;;;7.50;;
63699;SDS011;49845;47.130;142.766;2023-07-30T03:27:27;20.17;;;7.90;;
63699;SDS011;49845;47.130;142.766;2023-07-30T03:29:59;13.13;;;7.90;;
63699;SDS011;49845;47.130;142.766;2023-07-30T03:32:34;20.93;;;12.30;;
63699;SDS011;49845;47.130;142.766;2023-07-30T03:35:23;66.07;;;41.63;;
63699;SDS011;49845;47.130;142.766;2023-07-30T03:37:56;29.00;;;17.53;;
63699;SDS011;49845;47.130;142.766;2023-07-30T03:40:44;35.73;;;21.73;;
63699;SDS011;49845;47.130;142.766;2023-07-30T03:43:17;18.10;;;10.40;;
63699;SDS011;49845;47.130;142.766;2023-07-30T03:45:49;20.03;;;7.63;;
63699;SDS011;49845;47.130;142.766;2023-07-30T03:48:22;20.90;;;9.90;;
63699;SDS011;49845;47.130;142.766;2023-07-30T03:50:56;13.90;;;8.27;;
63699;SDS011;49845;47.130;142.766;2023-07-30T03:53:28;11.97;;;7.43;;
63699;SDS011;49845;47.130;142.766;2023-07-30T03:56:02;17.33;;;7.63;;
63699;SDS011;49845;47.130;142.766;2023-07-30T03:58:35;15.43;;;7.80;;
63699;SDS011;49845;47.130;142.766;2023-07-30T04:01:08;14.43;;;6.83;;
63699;SDS011;49845;47.130;142.766;2023-07-30T04:03:41;11.87;;;6.47;;
63699;SDS011;49845;47.130;142.766;2023-07-30T04:06:15;9.43;;;6.47;;
63699;SDS011;49845;47.130;142.766;2023-07-30T04:08:47;10.47;;;6.93;;
63699;SDS011;49845;47.130;142.766;2023-07-30T04:11:21;12.30;;;6.93;;
63699;SDS011;49845;47.130;142.766;2023-07-30T04:13:53;11.07;;;6.07;;
63699;SDS011;49845;47.130;142.766;2023-07-30T04:16:27;11.17;;;6.13;;
63699;SDS011;49845;47.130;142.766;2023-07-30T04:19:02;8.57;;;5.83;;
63699;SDS011;49845;47.130;142.766;2023-07-30T04:21:35;9.33;;;5.90;;
63699;SDS011;49845;47.130;142.766;2023-07-30T04:24:07;13.60;;;7.33;;
63699;SDS011;49845;47.130;142.766;2023-07-30T04:26:42;17.13;;;7.80;;
63699;SDS011;49845;47.130;142.766;2023-07-30T04:29:16;16.33;;;7.23;;
63699;SDS011;49845;47.130;142.766;2023-07-30T04:31:49;17.73;;;7.50;;
63699;SDS011;49845;47.130;142.766;2023-07-30T04:34:21;18.47;;;8.10;;
63699;SDS011;49845;47.130;142.766;2023-07-30T04:36:53;12.37;;;7.33;;
63699;SDS011;49845;47.130;142.766;2023-07-30T04:39:27;17.40;;;10.57;;
63699;SDS011;49845;47.130;142.766;2023-07-30T04:42:03;16.10;;;7.80;;
63699;SDS011;49845;47.130;142.766;2023-07-30T04:44:35;10.83;;;6.97;;
63699;SDS011;49845;47.130;142.766;2023-07-30T04:47:11;12.77;;;6.60;;
63699;SDS011;49845;47.130;142.766;2023-07-30T04:49:43;17.07;;;6.43;;
63699;SDS011;49845;47.130;142.766;2023-07-30T04:52:16;11.67;;;7.33;;
63699;SDS011;49845;47.130;142.766;2023-07-30T04:54:48;18.73;;;6.97;;
63699;SDS011;49845;47.130;142.766;2023-07-30T04:57:23;12.03;;;6.97;;
63699;SDS011;49845;47.130;142.766;2023-07-30T04:59:57;13.10;;;7.07;;
63699;SDS011;49845;47.130;142.766;2023-07-30T05:02:31;17.67;;;9.20;;
63699;SDS011;49845;47.130;142.766;2023-07-30T05:05:04;25.63;;;16.70;;
63699;SDS011;49845;47.130;142.766;2023-07-30T05:07:38;18.80;;;11.33;;
63699;SDS011;49845;47.130;142.766;2023-07-30T05:10:11;17.37;;;10.07;;
63699;SDS011;49845;47.130;142.766;2023-07-30T05:12:48;12.77;;;8.03;;
63699;SDS011;49845;47.130;142.766;2023-07-30T05:15:20;15.87;;;7.47;;
63699;SDS011;49845;47.130;142.766;2023-07-30T05:17:53;13.40;;;6.50;;
63699;SDS011;49845;47.130;142.766;2023-07-30T05:20:27;12.17;;;6.70;;
63699;SDS011;49845;47.130;142.766;2023-07-30T05:23:02;13.50;;;8.47;;
63699;SDS011;49845;47.130;142.766;2023-07-30T05:25:36;13.53;;;7.10;;
63699;SDS011;49845;47.130;142.766;2023-07-30T05:28:10;13.47;;;7.20;;
63699;SDS011;49845;47.130;142.766;2023-07-30T05:30:44;9.47;;;6.63;;
63699;SDS011;49845;47.130;142.766;2023-07-30T05:33:19;12.37;;;6.67;;
63699;SDS011;49845;47.130;142.766;2023-07-30T05:35:51;12.57;;;7.00;;
63699;SDS011;49845;47.130;142.766;2023-07-30T05:38:23;10.67;;;6.50;;
63699;SDS011;49845;47.130;142.766;2023-07-30T05:40:57;14.80;;;6.77;;
63699;SDS011;49845;47.130;142.766;2023-07-30T05:43:32;10.10;;;6.90;;
63699;SDS011;49845;47.130;142.766;2023-07-30T05:46:05;12.33;;;6.03;;
63699;SDS011;49845;47.130;142.766;2023-07-30T05:48:38;14.70;;;6.67;;
63699;SDS011;49845;47.130;142.766;2023-07-30T05:51:10;13.53;;;6.53;;
63699;SDS011;49845;47.130;142.766;2023-07-30T05:53:46;11.73;;;6.20;;
63699;SDS011;49845;47.130;142.766;2023-07-30T05:56:21;13.47;;;7.30;;
63699;SDS011;49845;47.130;142.766;2023-07-30T05:58:55;12.83;;;6.80;;
63699;SDS011;49845;47.130;142.766;2023-07-30T06:01:28;21.80;;;8.07;;
63699;SDS011;49845;47.130;142.766;2023-07-30T06:04:02;12.23;;;6.10;;
63699;SDS011;49845;47.130;142.766;2023-07-30T06:06:41;9.93;;;6.68;;
63699;SDS011;49845;47.130;142.766;2023-07-30T06:09:13;10.57;;;7.00;;
63699;SDS011;49845;47.130;142.766;2023-07-30T06:11:46;12.87;;;7.17;;
63699;SDS011;49845;47.130;142.766;2023-07-30T06:14:22;15.03;;;7.47;;
63699;SDS011;49845;47.130;142.766;2023-07-30T06:16:54;15.90;;;7.90;;
63699;SDS011;49845;47.130;142.766;2023-07-30T06:19:29;11.53;;;7.70;;
63699;SDS011;49845;47.130;142.766;2023-07-30T06:22:04;14.97;;;7.60;;
63699;SDS011;49845;47.130;142.766;2023-07-30T06:24:37;14.67;;;7.17;;
63699;SDS011;49845;47.130;142.766;2023-07-30T06:27:10;18.87;;;7.43;;
63699;SDS011;49845;47.130;142.766;2023-07-30T06:29:44;13.63;;;7.73;;
63699;SDS011;49845;47.130;142.766;2023-07-30T06:32:17;15.23;;;7.57;;
63699;SDS011;49845;47.130;142.766;2023-07-30T06:34:51;17.30;;;8.03;;
63699;SDS011;49845;47.130;142.766;2023-07-30T06:37:25;16.03;;;8.03;;
63699;SDS011;49845;47.130;142.766;2023-07-30T06:39:59;13.10;;;7.77;;
63699;SDS011;49845;47.130;142.766;2023-07-30T06:42:34;20.60;;;8.57;;
63699;SDS011;49845;47.130;142.766;2023-07-30T06:45:09;11.70;;;7.23;;
63699;SDS011;49845;47.130;142.766;2023-07-30T06:47:41;16.13;;;8.40;;
63699;SDS011;49845;47.130;142.766;2023-07-30T06:50:15;13.63;;;7.97;;
63699;SDS011;49845;47.130;142.766;2023-07-30T06:52:49;14.37;;;8.00;;
63699;SDS011;49845;47.130;142.766;2023-07-30T06:55:21;15.97;;;8.07;;
63699;SDS011;49845;47.130;142.766;2023-07-30T06:57:56;16.60;;;8.30;;
63699;SDS011;49845;47.130;142.766;2023-07-30T07:00:33;20.07;;;8.77;;
63699;SDS011;49845;47.130;142.766;2023-07-30T07:03:08;13.33;;;7.60;;
63699;SDS011;49845;47.130;142.766;2023-07-30T07:05:44;13.63;;;8.20;;
63699;SDS011;49845;47.130;142.766;2023-07-30T07:08:28;15.00;;;8.07;;
63699;SDS011;49845;47.130;142.766;2023-07-30T07:11:02;38.60;;;22.13;;
63699;SDS011;49845;47.130;142.766;2023-07-30T07:13:36;48.80;;;27.47;;
63699;SDS011;49845;47.130;142.766;2023-07-30T07:16:15;25.53;;;16.00;;
63699;SDS011;49845;47.130;142.766;2023-07-30T07:18:47;42.23;;;23.87;;
63699;SDS011;49845;47.130;142.766;2023-07-30T07:21:22;18.80;;;13.67;;
63699;SDS011;49845;47.130;142.766;2023-07-30T07:24:00;17.17;;;8.68;;
63699;SDS011;49845;47.130;142.766;2023-07-30T07:26:33;18.20;;;8.63;;
63699;SDS011;49845;47.130;142.766;2023-07-30T07:29:06;19.60;;;10.33;;
63699;SDS011;49845;47.130;142.766;2023-07-30T07:31:41;17.13;;;9.27;;
63699;SDS011;49845;47.130;142.766;2023-07-30T07:34:18;22.07;;;11.00;;
63699;SDS011;49845;47.130;142.766;2023-07-30T07:36:52;16.87;;;9.80;;
63699;SDS011;49845;47.130;142.766;2023-07-30T07:39:24;24.60;;;10.90;;
63699;SDS011;49845;47.130;142.766;2023-07-30T07:41:57;61.27;;;43.23;;
63699;SDS011;49845;47.130;142.766;2023-07-30T07:44:31;65.40;;;41.63;;
63699;SDS011;49845;47.130;142.766;2023-07-30T07:47:06;54.40;;;37.40;;
63699;SDS011;49845;47.130;142.766;2023-07-30T07:49:39;39.03;;;25.83;;
63699;SDS011;49845;47.130;142.766;2023-07-30T07:52:12;34.00;;;18.83;;
63699;SDS011;49845;47.130;142.766;2023-07-30T07:54:46;27.67;;;20.40;;
63699;SDS011;49845;47.130;142.766;2023-07-30T07:57:24;38.87;;;24.80;;
63699;SDS011;49845;47.130;142.766;2023-07-30T08:00:00;27.23;;;18.37;;
63699;SDS011;49845;47.130;142.766;2023-07-30T08:02:36;32.60;;;17.97;;
63699;SDS011;49845;47.130;142.766;2023-07-30T08:05:09;19.13;;;8.83;;
63699;SDS011;49845;47.130;142.766;2023-07-30T08:07:44;18.73;;;8.80;;
63699;SDS011;49845;47.130;142.766;2023-07-30T08:10:18;20.97;;;14.57;;
63699;SDS011;49845;47.130;142.766;2023-07-30T08:12:51;17.27;;;9.93;;
63699;SDS011;49845;47.130;142.766;2023-07-30T08:15:23;17.57;;;8.37;;
63699;SDS011;49845;47.130;142.766;2023-07-30T08:18:02;21.00;;;8.57;;
63699;SDS011;49845;47.130;142.766;2023-07-30T08:20:36;21.50;;;9.23;;
63699;SDS011;49845;47.130;142.766;2023-07-30T08:23:09;17.40;;;8.33;;
63699;SDS011;49845;47.130;142.766;2023-07-30T08:25:42;21.43;;;9.13;;
63699;SDS011;49845;47.130;142.766;2023-07-30T08:28:19;23.77;;;8.70;;
63699;SDS011;49845;47.130;142.766;2023-07-30T08:30:51;26.27;;;9.30;;
63699;SDS011;49845;47.130;142.766;2023-07-30T08:33:25;20.23;;;8.63;;
63699;SDS011;49845;47.130;142.766;2023-07-30T08:36:00;20.23;;;8.53;;
63699;SDS011;49845;47.130;142.766;2023-07-30T08:38:32;23.70;;;8.67;;
63699;SDS011;49845;47.130;142.766;2023-07-30T08:41:04;33.73;;;9.30;;
63699;SDS011;49845;47.130;142.766;2023-07-30T08:43:38;24.47;;;9.70;;
63699;SDS011;49845;47.130;142.766;2023-07-30T08:46:11;24.60;;;9.20;;
63699;SDS011;49845;47.130;142.766;2023-07-30T08:48:47;16.43;;;8.77;;
63699;SDS011;49845;47.130;142.766;2023-07-30T08:51:20;24.67;;;9.63;;
63699;SDS011;49845;47.130;142.766;2023-07-30T08:53:54;26.50;;;9.63;;
63699;SDS011;49845;47.130;142.766;2023-07-30T08:56:31;27.17;;;9.20;;
63699;SDS011;49845;47.130;142.766;2023-07-30T08:59:03;19.43;;;9.63;;
63699;SDS011;49845;47.130;142.766;2023-07-30T09:01:37;23.47;;;10.00;;
63699;SDS011;49845;47.130;142.766;2023-07-30T09:04:12;22.53;;;10.27;;
63699;SDS011;49845;47.130;142.766;2023-07-30T09:06:55;24.53;;;9.60;;
63699;SDS011;49845;47.130;142.766;2023-07-30T09:09:29;21.33;;;9.80;;
63699;SDS011;49845;47.130;142.766;2023-07-30T09:12:06;23.47;;;10.13;;
63699;SDS011;49845;47.130;142.766;2023-07-30T09:14:43;19.97;;;10.17;;
63699;SDS011;49845;47.130;142.766;2023-07-30T09:17:23;23.50;;;11.40;;
63699;SDS011;49845;47.130;142.766;2023-07-30T09:19:58;23.33;;;10.47;;
63699;SDS011;49845;47.130;142.766;2023-07-30T09:22:32;23.95;;;11.40;;
63699;SDS011;49845;47.130;142.766;2023-07-30T09:25:09;24.37;;;11.47;;
63699;SDS011;49845;47.130;142.766;2023-07-30T09:27:43;22.77;;;11.00;;
63699;SDS011;49845;47.130;142.766;2023-07-30T09:30:24;26.87;;;11.07;;
63699;SDS011;49845;47.130;142.766;2023-07-30T09:32:56;29.23;;;11.87;;
63699;SDS011;49845;47.130;142.766;2023-07-30T09:35:32;26.03;;;11.80;;
63699;SDS011;49845;47.130;142.766;2023-07-30T09:41:19;28.87;;;11.40;;
63699;SDS011;49845;47.130;142.766;2023-07-30T09:43:57;27.70;;;10.97;;
63699;SDS011;49845;47.130;142.766;2023-07-30T09:46:29;23.30;;;11.57;;
63699;SDS011;49845;47.130;142.766;2023-07-30T09:49:01;24.87;;;11.40;;
63699;SDS011;49845;47.130;142.766;2023-07-30T09:51:39;31.40;;;11.60;;
63699;SDS011;49845;47.130;142.766;2023-07-30T09:54:16;29.13;;;11.13;;
63699;SDS011;49845;47.130;142.766;2023-07-30T09:56:49;25.90;;;11.23;;
63699;SDS011;49845;47.130;142.766;2023-07-30T09:59:24;23.83;;;10.83;;
63699;SDS011;49845;47.130;142.766;2023-07-30T10:01:56;25.93;;;11.63;;
63699;SDS011;49845;47.130;142.766;2023-07-30T10:04:29;21.20;;;10.33;;
63699;SDS011;49845;47.130;142.766;2023-07-30T10:07:07;24.97;;;10.90;;
63699;SDS011;49845;47.130;142.766;2023-07-30T10:09:42;21.67;;;9.70;;
63699;SDS011;49845;47.130;142.766;2023-07-30T10:12:20;19.43;;;9.30;;
63699;SDS011;49845;47.130;142.766;2023-07-30T10:14:54;20.83;;;9.67;;
63699;SDS011;49845;47.130;142.766;2023-07-30T10:17:26;22.83;;;8.87;;
63699;SDS011;49845;47.130;142.766;2023-07-30T10:20:03;20.37;;;9.70;;
63699;SDS011;49845;47.130;142.766;2023-07-30T10:22:55;20.10;;;8.73;;
63699;SDS011;49845;47.130;142.766;2023-07-30T10:25:29;18.13;;;9.70;;
63699;SDS011;49845;47.130;142.766;2023-07-30T10:28:26;19.57;;;8.97;;
63699;SDS011;49845;47.130;142.766;2023-07-30T10:31:03;16.10;;;8.43;;
63699;SDS011;49845;47.130;142.766;2023-07-30T10:33:44;17.43;;;9.13;;
63699;SDS011;49845;47.130;142.766;2023-07-30T10:36:17;17.83;;;8.80;;
63699;SDS011;49845;47.130;142.766;2023-07-30T10:38:50;18.13;;;9.27;;
63699;SDS011;49845;47.130;142.766;2023-07-30T10:41:23;15.83;;;9.10;;
63699;SDS011;49845;47.130;142.766;2023-07-30T10:43:56;16.30;;;8.53;;
63699;SDS011;49845;47.130;142.766;2023-07-30T10:46:30;16.57;;;9.23;;
63699;SDS011;49845;47.130;142.766;2023-07-30T10:49:04;19.63;;;8.80;;
63699;SDS011;49845;47.130;142.766;2023-07-30T10:51:40;17.00;;;8.40;;
63699;SDS011;49845;47.130;142.766;2023-07-30T10:54:13;19.43;;;9.30;;
63699;SDS011;49845;47.130;142.766;2023-07-30T10:56:45;21.20;;;9.83;;
63699;SDS011;49845;47.130;142.766;2023-07-30T10:59:18;17.60;;;9.50;;
63699;SDS011;49845;47.130;142.766;2023-07-30T11:01:52;19.93;;;9.27;;
63699;SDS011;49845;47.130;142.766;2023-07-30T11:04:26;15.40;;;9.43;;
63699;SDS011;49845;47.130;142.766;2023-07-30T11:06:59;15.13;;;8.17;;
63699;SDS011;49845;47.130;142.766;2023-07-30T11:09:33;16.00;;;7.90;;
63699;SDS011;49845;47.130;142.766;2023-07-30T11:12:09;15.50;;;8.50;;
63699;SDS011;49845;47.130;142.766;2023-07-30T11:14:42;11.97;;;8.17;;
63699;SDS011;49845;47.130;142.766;2023-07-30T11:17:14;13.87;;;7.90;;
63699;SDS011;49845;47.130;142.766;2023-07-30T11:22:29;15.63;;;7.60;;
63699;SDS011;49845;47.130;142.766;2023-07-30T11:25:02;13.77;;;8.03;;
63699;SDS011;49845;47.130;142.766;2023-07-30T11:30:20;16.93;;;7.90;;
63699;SDS011;49845;47.130;142.766;2023-07-30T11:32:53;11.97;;;7.60;;
63699;SDS011;49845;47.130;142.766;2023-07-30T11:35:27;16.63;;;8.47;;
63699;SDS011;49845;47.130;142.766;2023-07-30T11:37:59;17.83;;;8.13;;
63699;SDS011;49845;47.130;142.766;2023-07-30T11:40:35;15.13;;;8.10;;
63699;SDS011;49845;47.130;142.766;2023-07-30T11:43:07;13.60;;;7.70;;
63699;SDS011;49845;47.130;142.766;2023-07-30T11:45:39;14.60;;;8.57;;
63699;SDS011;49845;47.130;142.766;2023-07-30T11:48:12;17.40;;;8.20;;
63699;SDS011;49845;47.130;142.766;2023-07-30T11:50:47;18.20;;;9.00;;
63699;SDS011;49845;47.130;142.766;2023-07-30T11:53:20;19.43;;;10.13;;
63699;SDS011;49845;47.130;142.766;2023-07-30T11:55:53;18.23;;;8.90;;
63699;SDS011;49845;47.130;142.766;2023-07-30T11:58:24;20.30;;;9.53;;
63699;SDS011;49845;47.130;142.766;2023-07-30T12:00:59;16.20;;;9.33;;
63699;SDS011;49845;47.130;142.766;2023-07-30T12:03:31;19.00;;;9.27;;
63699;SDS011;49845;47.130;142.766;2023-07-30T12:06:04;18.07;;;10.20;;
63699;SDS011;49845;47.130;142.766;2023-07-30T12:08:36;19.43;;;10.33;;
63699;SDS011;49845;47.130;142.766;2023-07-30T12:11:10;17.63;;;10.07;;
63699;SDS011;49845;47.130;142.766;2023-07-30T12:13:44;19.40;;;9.63;;
63699;SDS011;49845;47.130;142.766;2023-07-30T12:16:18;18.67;;;9.63;;
63699;SDS011;49845;47.130;142.766;2023-07-30T12:18:52;20.07;;;10.37;;
63699;SDS011;49845;47.130;142.766;2023-07-30T12:21:24;16.30;;;9.87;;
63699;SDS011;49845;47.130;142.766;2023-07-30T12:23:56;19.10;;;10.20;;
63699;SDS011;49845;47.130;142.766;2023-07-30T12:26:29;17.27;;;10.60;;
63699;SDS011;49845;47.130;142.766;2023-07-30T12:32:12;23.73;;;11.07;;
63699;SDS011;49845;47.130;142.766;2023-07-30T12:35:02;18.70;;;10.27;;
63699;SDS011;49845;47.130;142.766;2023-07-30T12:37:34;24.97;;;11.00;;
63699;SDS011;49845;47.130;142.766;2023-07-30T12:40:06;23.70;;;11.97;;
63699;SDS011;49845;47.130;142.766;2023-07-30T12:42:40;22.73;;;10.70;;
63699;SDS011;49845;47.130;142.766;2023-07-30T12:45:14;24.77;;;10.53;;
63699;SDS011;49845;47.130;142.766;2023-07-30T12:47:49;20.00;;;10.87;;
63699;SDS011;49845;47.130;142.766;2023-07-30T12:50:20;26.13;;;10.67;;
63699;SDS011;49845;47.130;142.766;2023-07-30T12:52:52;19.93;;;11.20;;
63699;SDS011;49845;47.130;142.766;2023-07-30T12:55:23;20.37;;;10.87;;
63699;SDS011;49845;47.130;142.766;2023-07-30T12:58:00;24.40;;;11.77;;
63699;SDS011;49845;47.130;142.766;2023-07-30T13:00:32;19.07;;;12.07;;
63699;SDS011;49845;47.130;142.766;2023-07-30T13:03:04;25.73;;;12.50;;
63699;SDS011;49845;47.130;142.766;2023-07-30T13:05:36;23.87;;;12.50;;
63699;SDS011;49845;47.130;142.766;2023-07-30T13:08:07;24.83;;;12.17;;
63699;SDS011;49845;47.130;142.766;2023-07-30T13:10:39;27.50;;;12.47;;
63699;SDS011;49845;47.130;142.766;2023-07-30T13:13:13;22.70;;;12.87;;
63699;SDS011;49845;47.130;142.766;2023-07-30T13:15:45;22.67;;;12.27;;
63699;SDS011;49845;47.130;142.766;2023-07-30T13:18:19;26.27;;;12.20;;
63699;SDS011;49845;47.130;142.766;2023-07-30T13:20:51;26.83;;;15.17;;
63699;SDS011;49845;47.130;142.766;2023-07-30T13:23:22;21.87;;;13.13;;
63699;SDS011;49845;47.130;142.766;2023-07-30T13:25:54;21.90;;;13.17;;
63699;SDS011;49845;47.130;142.766;2023-07-30T13:28:27;23.10;;;13.43;;
63699;SDS011;49845;47.130;142.766;2023-07-30T13:30:59;27.47;;;13.20;;
63699;SDS011;49845;47.130;142.766;2023-07-30T13:33:31;25.37;;;12.47;;
63699;SDS011;49845;47.130;142.766;2023-07-30T13:36:02;23.73;;;12.77;;
63699;SDS011;49845;47.130;142.766;2023-07-30T13:38:36;26.47;;;12.40;;
63699;SDS011;49845;47.130;142.766;2023-07-30T13:41:12;23.37;;;12.63;;
63699;SDS011;49845;47.130;142.766;2023-07-30T13:43:48;22.80;;;13.10;;
63699;SDS011;49845;47.130;142.766;2023-07-30T13:46:21;24.20;;;12.73;;
63699;SDS011;49845;47.130;142.766;2023-07-30T13:48:55;23.70;;;12.93;;
63699;SDS011;49845;47.130;142.766;2023-07-30T13:51:27;29.00;;;13.87;;
63699;SDS011;49845;47.130;142.766;2023-07-30T13:54:03;27.40;;;13.60;;
63699;SDS011;49845;47.130;142.766;2023-07-30T13:56:36;26.03;;;13.77;;
63699;SDS011;49845;47.130;142.766;2023-07-30T13:59:10;30.77;;;13.00;;
63699;SDS011;49845;47.130;142.766;2023-07-30T14:01:41;24.97;;;12.87;;
63699;SDS011;49845;47.130;142.766;2023-07-30T14:04:13;29.27;;;14.33;;
63699;SDS011;49845;47.130;142.766;2023-07-30T14:06:47;27.83;;;14.10;;
63699;SDS011;49845;47.130;142.766;2023-07-30T14:09:19;24.67;;;14.23;;
63699;SDS011;49845;47.130;142.766;2023-07-30T14:11:52;27.73;;;14.57;;
63699;SDS011;49845;47.130;142.766;2023-07-30T14:14:26;26.53;;;14.53;;
63699;SDS011;49845;47.130;142.766;2023-07-30T14:16:57;28.87;;;13.83;;
63699;SDS011;49845;47.130;142.766;2023-07-30T14:19:34;27.43;;;14.97;;
63699;SDS011;49845;47.130;142.766;2023-07-30T14:22:06;25.70;;;14.33;;
63699;SDS011;49845;47.130;142.766;2023-07-30T14:24:37;27.23;;;14.30;;
63699;SDS011;49845;47.130;142.766;2023-07-30T14:27:11;25.00;;;13.70;;
63699;SDS011;49845;47.130;142.766;2023-07-30T14:29:45;25.13;;;14.20;;
63699;SDS011;49845;47.130;142.766;2023-07-30T14:32:17;26.27;;;14.10;;
63699;SDS011;49845;47.130;142.766;2023-07-30T14:34:50;29.17;;;15.07;;
63699;SDS011;49845;47.130;142.766;2023-07-30T14:37:22;26.43;;;14.30;;
63699;SDS011;49845;47.130;142.766;2023-07-30T14:39:55;27.80;;;14.20;;
63699;SDS011;49845;47.130;142.766;2023-07-30T14:42:27;27.60;;;13.77;;
63699;SDS011;49845;47.130;142.766;2023-07-30T14:45:01;26.83;;;13.83;;
63699;SDS011;49845;47.130;142.766;2023-07-30T14:47:35;26.67;;;14.97;;
63699;SDS011;49845;47.130;142.766;2023-07-30T14:50:07;30.73;;;16.83;;
63699;SDS011;49845;47.130;142.766;2023-07-30T14:52:40;26.87;;;15.30;;